Wetterdaten: Woche 26.01.04 - 01.02.04 (KW5)
Datum Zeit Temperatur Luftfeuchte Luftdruck Regenmenge Wind Richtung Taupunkt Windchill
26.01.2004 00:00 -0.8 C 95 % 1012.1 hPa 0.0 l/m 0.0 km/h (0 Bft) N -1.5 C -0.8 C
26.01.2004 01:00 -0.5 C 94 % 1011.0 hPa 0.0 l/m 1.0 km/h (0 Bft) NO -1.4 C -0.8 C
26.01.2004 02:00 -0.4 C 87 % 1009.7 hPa 0.0 l/m 0.1 km/h (0 Bft) N -2.3 C -0.4 C
26.01.2004 03:00 -0.5 C 82 % 1009.0 hPa 0.0 l/m 0.4 km/h (0 Bft) O -3.1 C -0.5 C
26.01.2004 04:00 -0.6 C 83 % 1008.7 hPa 0.0 l/m 0.1 km/h (0 Bft) N -3.2 C -0.6 C
26.01.2004 05:00 -0.9 C 87 % 1007.7 hPa 0.0 l/m 0.7 km/h (0 Bft) O -2.9 C -1.2 C
26.01.2004 06:00 -0.9 C 86 % 1006.9 hPa 0.0 l/m 0.5 km/h (0 Bft) NO -3.0 C -1.0 C
26.01.2004 07:00 -1.1 C 80 % 1006.6 hPa 0.0 l/m 0.0 km/h (0 Bft) N -4.1 C -1.1 C
26.01.2004 08:00 -1.4 C 79 % 1006.5 hPa 0.0 l/m 0.3 km/h (0 Bft) O-SO -4.6 C -1.4 C
26.01.2004 09:00 -1.0 C 79 % 1005.6 hPa 0.0 l/m 7.5 km/h (2 Bft) O-SO -4.3 C -3.5 C
26.01.2004 10:00 -0.6 C 77 % 1004.6 hPa 0.0 l/m 3.9 km/h (1 Bft) O-SO -4.1 C -1.8 C
26.01.2004 11:00 -0.5 C 74 % 1003.9 hPa 0.0 l/m 4.2 km/h (1 Bft) O-SO -4.5 C -1.7 C
26.01.2004 12:00 -1.1 C 78 % 1003.5 hPa 0.3 l/m 7.0 km/h (2 Bft) O-SO -4.5 C -3.3 C
26.01.2004 13:00 -1.3 C 86 % 1003.5 hPa 0.7 l/m 0.0 km/h (0 Bft) N -3.4 C -1.3 C
26.01.2004 14:00 -0.8 C 85 % 1002.4 hPa 1.4 l/m 0.0 km/h (0 Bft) N -3.0 C -0.8 C
26.01.2004 15:00 -0.4 C 78 % 1001.4 hPa 0.3 l/m 1.8 km/h (1 Bft) O-SO -3.7 C -0.9 C
26.01.2004 16:00 -0.9 C 80 % 1000.9 hPa 0.0 l/m 2.0 km/h (1 Bft) O-SO -3.9 C -1.4 C
26.01.2004 17:00 -1.4 C 84 % 1000.6 hPa 0.0 l/m 1.2 km/h (1 Bft) O-SO -3.8 C -1.8 C
26.01.2004 18:00 -1.9 C 86 % 1000.4 hPa 0.0 l/m 1.2 km/h (1 Bft) O-SO -3.9 C -2.2 C
26.01.2004 19:00 -1.8 C 87 % 999.6 hPa 0.0 l/m 0.5 km/h (0 Bft) O-SO -3.6 C -1.9 C
26.01.2004 20:00 -1.7 C 87 % 999.3 hPa 0.0 l/m 0.2 km/h (0 Bft) O-SO -3.6 C -1.7 C
26.01.2004 21:00 -1.8 C 87 % 999.2 hPa 0.0 l/m 1.5 km/h (1 Bft) O-SO -3.7 C -2.0 C
26.01.2004 22:00 -1.7 C 86 % 998.8 hPa 0.0 l/m 1.9 km/h (1 Bft) O-SO -3.7 C -2.4 C
26.01.2004 23:00 -1.6 C 87 % 998.6 hPa 0.0 l/m 0.5 km/h (0 Bft) O -3.5 C -1.8 C
27.01.2004 00:00 -1.5 C 88 % 999.3 hPa 0.3 l/m 4.8 km/h (1 Bft) O-SO -3.2 C -3.2 C
27.01.2004 01:00 -1.6 C 92 % 999.3 hPa 0.7 l/m 0.0 km/h (0 Bft) N -2.8 C -1.6 C
27.01.2004 02:00 -1.6 C 94 % 999.3 hPa 0.7 l/m 0.0 km/h (0 Bft) N -2.5 C -1.6 C
27.01.2004 03:00 -1.6 C 95 % 999.3 hPa 0.3 l/m 0.0 km/h (0 Bft) N -2.3 C -1.6 C
27.01.2004 04:00 -1.5 C 96 % 999.3 hPa 0.7 l/m 0.0 km/h (0 Bft) N -2.0 C -1.5 C
27.01.2004 05:00 -1.2 C 97 % 999.3 hPa 0.7 l/m 0.0 km/h (0 Bft) N -1.5 C -1.2 C
27.01.2004 06:00 -0.9 C 98 % 999.3 hPa 0.3 l/m 0.0 km/h (0 Bft) N -1.2 C -0.9 C
27.01.2004 07:00 -0.8 C 99 % 999.3 hPa 0.3 l/m 0.0 km/h (0 Bft) N -0.9 C -0.8 C
27.01.2004 08:00 -0.5 C 100 % 999.5 hPa 0.3 l/m 0.0 km/h (0 Bft) N -0.6 C -0.5 C
27.01.2004 09:00 -0.1 C 100 % 1000.1 hPa 0.7 l/m 0.0 km/h (0 Bft) N -0.1 C -0.1 C
27.01.2004 10:00 0.2 C 100 % 1000.4 hPa 1.0 l/m 0.0 km/h (0 Bft) N 0.2 C 0.2 C
27.01.2004 11:00 0.3 C 98 % 1000.4 hPa 0.7 l/m 0.5 km/h (0 Bft) NW 0.0 C 0.3 C
27.01.2004 12:00 0.6 C 92 % 1000.4 hPa 0.3 l/m 13.2 km/h (3 Bft) NW -0.6 C -3.1 C
27.01.2004 13:00 0.8 C 86 % 1000.4 hPa 0.0 l/m 13.8 km/h (3 Bft) NW -1.3 C -3.0 C
27.01.2004 14:00 0.7 C 84 % 1000.4 hPa 0.0 l/m 14.1 km/h (3 Bft) NW -1.6 C -3.2 C
27.01.2004 15:00 0.4 C 81 % 1000.4 hPa 0.0 l/m 24.3 km/h (4 Bft) NW -2.4 C -5.2 C
27.01.2004 16:00 0.0 C 84 % 1000.7 hPa 0.0 l/m 23.3 km/h (4 Bft) NW -2.4 C -5.6 C
27.01.2004 17:00 -0.4 C 89 % 1001.4 hPa 0.3 l/m 9.2 km/h (2 Bft) NW -2.0 C -3.1 C
27.01.2004 18:00 -0.5 C 89 % 1001.4 hPa 0.3 l/m 9.0 km/h (2 Bft) NW -2.1 C -3.0 C
27.01.2004 19:00 -0.7 C 93 % 1002.1 hPa 0.3 l/m 0.1 km/h (0 Bft) S-SO -1.8 C -0.7 C
27.01.2004 20:00 -0.9 C 94 % 1002.4 hPa 0.0 l/m 0.1 km/h (0 Bft) N -1.7 C -0.9 C
27.01.2004 21:00 -0.9 C 94 % 1002.6 hPa 0.3 l/m 1.1 km/h (1 Bft) NW -1.8 C -1.2 C
27.01.2004 22:00 -1.1 C 93 % 1003.4 hPa 0.3 l/m 9.7 km/h (2 Bft) NW -2.1 C -4.2 C
27.01.2004 23:00 -1.3 C 89 % 1004.3 hPa 0.0 l/m 14.8 km/h (3 Bft) W-NW -2.9 C -6.0 C
28.01.2004 00:00 -1.4 C 86 % 1004.9 hPa 0.0 l/m 10.7 km/h (2 Bft) NW -3.4 C -5.1 C
28.01.2004 01:00 -1.4 C 86 % 1005.6 hPa 0.0 l/m 13.3 km/h (3 Bft) NW -3.5 C -5.8 C
28.01.2004 02:00 -1.7 C 81 % 1005.6 hPa 0.0 l/m 19.9 km/h (4 Bft) NW -4.5 C -7.4 C
28.01.2004 03:00 -2.3 C 79 % 1005.6 hPa 0.0 l/m 12.5 km/h (3 Bft) NW -5.5 C -6.5 C
28.01.2004 04:00 -2.5 C 81 % 1005.6 hPa 0.0 l/m 3.7 km/h (1 Bft) NW -5.2 C -3.6 C
28.01.2004 05:00 -2.5 C 81 % 1005.6 hPa 0.0 l/m 0.6 km/h (0 Bft) SO -5.3 C -2.6 C
28.01.2004 06:00 -3.0 C 83 % 1005.6 hPa 0.0 l/m 0.9 km/h (0 Bft) SO -5.6 C -3.3 C
28.01.2004 07:00 -3.1 C 87 % 1005.6 hPa 0.0 l/m 1.9 km/h (1 Bft) SO -5.0 C -3.7 C
28.01.2004 08:00 -3.0 C 89 % 1004.7 hPa 0.3 l/m 2.7 km/h (1 Bft) SO -4.6 C -3.6 C
28.01.2004 09:00 -1.8 C 89 % 1004.5 hPa 0.0 l/m 0.4 km/h (0 Bft) NO -3.4 C -1.8 C
28.01.2004 10:00 -0.6 C 83 % 1004.5 hPa 0.3 l/m 4.1 km/h (1 Bft) NW -3.2 C -1.7 C
28.01.2004 11:00 0.0 C 76 % 1004.5 hPa 0.0 l/m 10.0 km/h (2 Bft) NW -3.8 C -2.8 C
28.01.2004 12:00 0.5 C 67 % 1003.7 hPa 0.0 l/m 15.8 km/h (3 Bft) NW -4.9 C -3.6 C
28.01.2004 13:00 0.6 C 64 % 1003.5 hPa 0.0 l/m 13.7 km/h (3 Bft) NW -5.4 C -3.3 C
28.01.2004 14:00 1.0 C 67 % 1003.5 hPa 0.0 l/m 3.8 km/h (1 Bft) W-NW -4.4 C 0.0 C
28.01.2004 15:00 0.5 C 78 % 1003.5 hPa 0.0 l/m 2.1 km/h (1 Bft) SO -2.8 C -0.0 C
28.01.2004 16:00 -0.3 C 85 % 1003.5 hPa 0.3 l/m 2.1 km/h (1 Bft) W -2.5 C -0.8 C
28.01.2004 17:00 -0.8 C 92 % 1003.5 hPa 1.4 l/m 0.3 km/h (0 Bft) W-SW -1.9 C -0.8 C
28.01.2004 18:00 -0.8 C 89 % 1003.5 hPa 0.3 l/m 0.8 km/h (0 Bft) W -2.4 C -0.9 C
28.01.2004 19:00 -0.9 C 90 % 1004.5 hPa 0.0 l/m 0.3 km/h (0 Bft) N -2.3 C -0.9 C
28.01.2004 20:00 -0.9 C 92 % 1004.5 hPa 0.0 l/m 0.7 km/h (0 Bft) SO -2.0 C -0.9 C
28.01.2004 21:00 -0.8 C 92 % 1004.5 hPa 0.3 l/m 2.2 km/h (1 Bft) SO -1.9 C -1.3 C
28.01.2004 22:00 -0.7 C 89 % 1004.5 hPa 0.0 l/m 1.7 km/h (1 Bft) W-NW -2.3 C -1.2 C
28.01.2004 23:00 -0.7 C 84 % 1004.5 hPa 0.0 l/m 8.7 km/h (2 Bft) NW -3.0 C -3.4 C
29.01.2004 00:00 -0.7 C 85 % 1004.5 hPa 0.0 l/m 6.8 km/h (2 Bft) W-NW -2.9 C -2.8 C
29.01.2004 01:00 -0.4 C 81 % 1003.6 hPa 0.3 l/m 20.1 km/h (4 Bft) NW -3.3 C -5.7 C
29.01.2004 02:00 -0.8 C 81 % 1003.0 hPa 0.0 l/m 6.2 km/h (2 Bft) W-NW -3.6 C -2.7 C
29.01.2004 03:00 -1.1 C 83 % 1001.3 hPa 0.0 l/m 3.9 km/h (1 Bft) SO -3.5 C -1.9 C
29.01.2004 04:00 -1.4 C 78 % 999.8 hPa 0.0 l/m 16.8 km/h (3 Bft) W -4.7 C -6.0 C
29.01.2004 05:00 -1.3 C 75 % 999.0 hPa 0.0 l/m 16.7 km/h (3 Bft) W-SW -5.1 C -6.1 C
29.01.2004 06:00 -0.9 C 70 % 998.3 hPa 0.0 l/m 25.5 km/h (4 Bft) W -5.7 C -7.0 C
29.01.2004 07:00 -1.4 C 78 % 998.3 hPa 0.0 l/m 12.1 km/h (2 Bft) W -4.7 C -5.3 C
29.01.2004 08:00 -1.5 C 83 % 999.4 hPa 0.3 l/m 31.4 km/h (5 Bft) W-NW -4.0 C -8.4 C
29.01.2004 09:00 -1.7 C 81 % 1001.7 hPa 0.0 l/m 35.9 km/h (5 Bft) W-NW -4.6 C -9.2 C
29.01.2004 10:00 -2.1 C 80 % 1004.6 hPa 0.3 l/m 34.4 km/h (5 Bft) NW -5.1 C -9.7 C
29.01.2004 11:00 -1.9 C 76 % 1007.0 hPa 0.0 l/m 27.5 km/h (4 Bft) NW -5.6 C -8.7 C
29.01.2004 12:00 -1.4 C 72 % 1008.7 hPa 0.3 l/m 27.4 km/h (4 Bft) W-NW -5.9 C -8.0 C
29.01.2004 13:00 -1.0 C 66 % 1009.6 hPa 0.0 l/m 23.5 km/h (4 Bft) NW -6.6 C -7.0 C
29.01.2004 14:00 -0.8 C 71 % 1010.7 hPa 0.0 l/m 15.0 km/h (3 Bft) W-NW -5.4 C -5.1 C
29.01.2004 15:00 -1.0 C 68 % 1011.4 hPa 0.0 l/m 16.8 km/h (3 Bft) W-NW -6.2 C -5.8 C
29.01.2004 16:00 -1.2 C 72 % 1012.3 hPa 0.0 l/m 13.0 km/h (3 Bft) W-NW -5.6 C -5.2 C
29.01.2004 17:00 -1.3 C 74 % 1013.4 hPa 0.0 l/m 20.5 km/h (4 Bft) W-NW -5.4 C -6.9 C
29.01.2004 18:00 -1.5 C 80 % 1014.1 hPa 0.0 l/m 23.6 km/h (4 Bft) W-NW -4.5 C -7.5 C
29.01.2004 19:00 -1.6 C 77 % 1015.3 hPa 0.0 l/m 31.1 km/h (5 Bft) NW -5.1 C -8.7 C
29.01.2004 20:00 -2.4 C 75 % 1016.0 hPa 0.0 l/m 17.2 km/h (3 Bft) NW -6.3 C -7.6 C
29.01.2004 21:00 -2.5 C 74 % 1017.0 hPa 0.0 l/m 9.8 km/h (2 Bft) W-NW -6.6 C -5.8 C
29.01.2004 22:00 -2.7 C 70 % 1017.8 hPa 0.0 l/m 3.7 km/h (1 Bft) W -7.4 C -3.7 C
29.01.2004 23:00 -2.7 C 70 % 1018.7 hPa 0.0 l/m 5.0 km/h (1 Bft) SO -7.5 C -4.3 C
30.01.2004 00:00 -2.8 C 71 % 1019.1 hPa 0.0 l/m 5.5 km/h (1 Bft) O -7.3 C -4.7 C
30.01.2004 01:00 -3.0 C 79 % 1020.0 hPa 0.0 l/m 5.7 km/h (1 Bft) SO -6.1 C -4.8 C
30.01.2004 02:00 -3.0 C 82 % 1020.1 hPa 0.0 l/m 3.7 km/h (1 Bft) SO -5.5 C -4.0 C
30.01.2004 03:00 -2.6 C 77 % 1020.2 hPa 0.0 l/m 4.6 km/h (1 Bft) W -6.2 C -4.0 C
30.01.2004 04:00 -2.7 C 76 % 1021.2 hPa 0.0 l/m 0.5 km/h (0 Bft) SW -6.2 C -2.7 C
30.01.2004 05:00 -2.8 C 76 % 1021.2 hPa 0.0 l/m 2.1 km/h (1 Bft) SO -6.4 C -3.2 C
30.01.2004 06:00 -3.6 C 76 % 1021.2 hPa 0.0 l/m 2.1 km/h (1 Bft) S-SO -7.2 C -4.1 C
30.01.2004 07:00 -5.4 C 75 % 1021.2 hPa 0.0 l/m 6.6 km/h (2 Bft) SO -9.1 C -8.2 C
30.01.2004 08:00 -5.9 C 73 % 1021.2 hPa 0.0 l/m 9.0 km/h (2 Bft) O-SO -9.9 C -10.0 C
30.01.2004 09:00 -4.5 C 70 % 1021.5 hPa 0.0 l/m 6.2 km/h (2 Bft) SO -9.1 C -6.9 C
30.01.2004 10:00 -3.5 C 62 % 1022.0 hPa 0.0 l/m 9.9 km/h (2 Bft) SO -9.7 C -7.2 C
30.01.2004 11:00 -2.4 C 59 % 1021.5 hPa 0.0 l/m 15.4 km/h (3 Bft) SO -9.3 C -7.4 C
30.01.2004 12:00 -1.6 C 55 % 1021.2 hPa 0.0 l/m 20.3 km/h (4 Bft) SO -9.4 C -7.3 C
30.01.2004 13:00 -0.3 C 50 % 1020.5 hPa 0.0 l/m 13.5 km/h (3 Bft) SW -9.6 C -4.3 C
30.01.2004 14:00 0.4 C 51 % 1020.1 hPa 0.0 l/m 12.5 km/h (3 Bft) SO -8.5 C -3.3 C
30.01.2004 15:00 -0.0 C 53 % 1020.1 hPa 0.0 l/m 11.0 km/h (2 Bft) SO -8.5 C -3.4 C
30.01.2004 16:00 -1.9 C 55 % 1020.1 hPa 0.0 l/m 5.2 km/h (1 Bft) SO -9.7 C -3.6 C
30.01.2004 17:00 -3.7 C 58 % 1019.9 hPa 0.0 l/m 7.2 km/h (2 Bft) SO -10.8 C -6.7 C
30.01.2004 18:00 -4.9 C 60 % 1020.1 hPa 0.0 l/m 4.7 km/h (1 Bft) SO -11.4 C -6.9 C
30.01.2004 19:00 -5.6 C 67 % 1020.1 hPa 0.0 l/m 1.1 km/h (1 Bft) SO -10.8 C -5.9 C
30.01.2004 20:00 -6.5 C 69 % 1019.7 hPa 0.0 l/m 0.3 km/h (0 Bft) SO -11.1 C -6.6 C
30.01.2004 21:00 -6.6 C 76 % 1019.8 hPa 0.0 l/m 0.5 km/h (0 Bft) SO -10.2 C -6.7 C
30.01.2004 22:00 -7.3 C 79 % 1020.1 hPa 0.0 l/m 0.7 km/h (0 Bft) SO -10.3 C -7.3 C
30.01.2004 23:00 -6.7 C 82 % 1020.1 hPa 0.0 l/m 0.0 km/h (0 Bft) N -9.2 C -6.7 C
31.01.2004 00:00 -6.0 C 83 % 1020.1 hPa 0.0 l/m 0.0 km/h (0 Bft) N -8.4 C -6.0 C
31.01.2004 01:00 -6.5 C 82 % 1020.1 hPa 0.0 l/m 0.0 km/h (0 Bft) N -9.1 C -6.5 C
31.01.2004 02:00 -7.4 C 83 % 1020.1 hPa 0.0 l/m 0.0 km/h (0 Bft) N -9.8 C -7.4 C
31.01.2004 03:00 -7.3 C 85 % 1020.1 hPa 0.0 l/m 0.2 km/h (0 Bft) N -9.5 C -7.3 C
31.01.2004 04:00 -8.3 C 84 % 1020.1 hPa 0.0 l/m 0.0 km/h (0 Bft) N -10.6 C -8.3 C
31.01.2004 05:00 -8.8 C 84 % 1020.1 hPa 0.0 l/m 0.0 km/h (0 Bft) N -11.0 C -8.8 C
31.01.2004 06:00 -8.1 C 84 % 1020.1 hPa 0.0 l/m 0.3 km/h (0 Bft) W-NW -10.3 C -8.2 C
31.01.2004 07:00 -8.0 C 82 % 1020.1 hPa 0.0 l/m 0.2 km/h (0 Bft) W-NW -10.6 C -8.0 C
31.01.2004 08:00 -7.7 C 79 % 1020.1 hPa 0.0 l/m 0.0 km/h (0 Bft) N -10.7 C -7.7 C
31.01.2004 09:00 -6.4 C 77 % 1019.1 hPa 0.0 l/m 0.0 km/h (0 Bft) N -9.8 C -6.4 C
31.01.2004 10:00 -4.3 C 70 % 1018.7 hPa 0.0 l/m 0.1 km/h (0 Bft) N -8.9 C -4.3 C
31.01.2004 11:00 -1.2 C 62 % 1017.9 hPa 0.0 l/m 0.9 km/h (0 Bft) N-NO -7.7 C -1.4 C
31.01.2004 12:00 0.8 C 55 % 1017.0 hPa 0.0 l/m 2.2 km/h (1 Bft) NW -7.3 C 0.3 C
31.01.2004 13:00 4.3 C 50 % 1016.2 hPa 0.0 l/m 4.5 km/h (1 Bft) NW -5.2 C 3.4 C
31.01.2004 14:00 6.1 C 47 % 1016.0 hPa 0.0 l/m 12.5 km/h (3 Bft) S-SO -4.2 C 3.7 C
31.01.2004 15:00 6.7 C 46 % 1015.4 hPa 0.0 l/m 16.1 km/h (3 Bft) W-SW -4.3 C 3.8 C
31.01.2004 16:00 6.2 C 51 % 1014.9 hPa 0.0 l/m 17.5 km/h (3 Bft) S -3.1 C 3.0 C
31.01.2004 17:00 6.0 C 58 % 1014.9 hPa 0.0 l/m 18.5 km/h (3 Bft) SO -1.7 C 2.5 C
31.01.2004 18:00 6.5 C 57 % 1015.5 hPa 0.0 l/m 23.2 km/h (4 Bft) SO -1.3 C 2.7 C
31.01.2004 19:00 4.6 C 73 % 1016.3 hPa 0.7 l/m 5.9 km/h (2 Bft) SO 0.0 C 3.6 C
31.01.2004 20:00 5.7 C 80 % 1017.5 hPa 0.3 l/m 15.0 km/h (3 Bft) W-NW 2.5 C 3.6 C
31.01.2004 21:00 8.9 C 60 % 1018.1 hPa 0.0 l/m 31.7 km/h (5 Bft) W 1.7 C 5.2 C
31.01.2004 22:00 8.9 C 60 % 1019.1 hPa 0.0 l/m 25.5 km/h (4 Bft) W 1.5 C 5.6 C
31.01.2004 23:00 9.3 C 57 % 1019.4 hPa 0.0 l/m 30.0 km/h (5 Bft) W 1.2 C 5.7 C
01.02.2004 00:00 9.0 C 58 % 1020.2 hPa 0.0 l/m 28.3 km/h (4 Bft) W-NW 1.3 C 5.4 C
01.02.2004 01:00 8.9 C 58 % 1021.2 hPa 0.0 l/m 19.9 km/h (4 Bft) W-NW 1.2 C 6.1 C
01.02.2004 02:00 8.2 C 61 % 1021.7 hPa 0.0 l/m 19.2 km/h (3 Bft) W-NW 1.0 C 5.2 C
01.02.2004 03:00 7.9 C 62 % 1022.2 hPa 0.0 l/m 13.6 km/h (3 Bft) W-NW 1.1 C 5.8 C
01.02.2004 04:00 7.8 C 62 % 1022.7 hPa 0.0 l/m 12.7 km/h (3 Bft) SO 1.0 C 5.8 C
01.02.2004 05:00 6.8 C 68 % 1023.3 hPa 0.0 l/m 8.8 km/h (2 Bft) SO 1.3 C 5.1 C
01.02.2004 06:00 5.9 C 73 % 1023.3 hPa 0.0 l/m 8.1 km/h (2 Bft) SO 1.5 C 4.3 C
01.02.2004 07:00 4.8 C 78 % 1024.0 hPa 0.0 l/m 4.2 km/h (1 Bft) S-SO 1.3 C 4.0 C
01.02.2004 08:00 5.1 C 76 % 1024.3 hPa 0.0 l/m 4.5 km/h (1 Bft) SO 1.2 C 4.2 C
01.02.2004 09:00 6.4 C 68 % 1025.3 hPa 0.0 l/m 11.1 km/h (2 Bft) SO 0.8 C 4.2 C
01.02.2004 10:00 7.9 C 61 % 1025.4 hPa 0.0 l/m 15.7 km/h (3 Bft) SO 0.9 C 5.3 C
01.02.2004 11:00 10.8 C 45 % 1026.2 hPa 0.0 l/m 18.5 km/h (3 Bft) W-NW -0.6 C 10.5 C
01.02.2004 12:00 12.3 C 41 % 1025.8 hPa 0.0 l/m 11.2 km/h (2 Bft) SO -0.5 C 12.3 C
01.02.2004 13:00 13.3 C 39 % 1025.3 hPa 0.0 l/m 7.6 km/h (2 Bft) S -0.2 C 13.3 C
Min-Datum _ 31.01.04 01.02.04 29.01.04 - 26.01.04 - 30.01.04 30.01.04
_ Min-Zeit 05:49 13:22 06:00 - 00:04 - 18:46 08:43
Minimum _ -9.3 C 36 % 998.3 hPa - 0.0 km/h (0 Bft) - -12.5 C -11.2 C
Max-Datum _ 01.02.04 27.01.04 01.02.04 26.01.04 29.01.04 - 31.01.04 01.02.04
_ Max-Zeit 13:22 08:28 10:43 13:00 09:25 - 20:43 13:22
Maximum _ 14.2 C 100 % 1026.4 hPa 1.4 l/m 51.1 km/h
W-NW (7 Bft)
- 4.2 C 14.2 C
Durchschnitt _ -0.5 C 77 % 1010.6 hPa #17.5 l/m 8.2 km/h (2 Bft) NW -4.3 C -2.4 C

Durchschnitt Minimum Temp.-1.0 C
Durchschnitt Maximum Temp.-0.0 C
© Kaiko 2004